Time;durP1;ratioP1;P1;durP2;ratioP2;P2;SDS_P1;SDS_P2;PMS_P1;PMS_P2;Temp;Humidity;BMP_temperature;BMP_pressure;BME280_temperature;BME280_humidity;BME280_pressure;Samples;Min_cycle;Max_cycle;Signal;HPM_P1;HPM_P2
2022/11/05 00:09:28;;;;;;;10.13;4.20;;;17.60;68.60;18.60;100614.00;;;;5013223;28;20177;-49
2022/11/05 00:11:13;;;;;;;5.97;3.90;;;17.40;68.70;18.50;100637.00;;;;4997556;28;20264;-48
2022/11/05 00:19:08;;;;;;;7.03;3.90;;;17.40;68.80;18.50;100627.00;;;;5012826;28;20249;-47
2022/11/05 00:27:04;;;;;;;5.10;3.80;;;17.30;68.80;18.40;100642.00;;;;5012461;28;20266;-47
2022/11/05 00:29:30;;;;;;;7.90;4.00;;;17.30;68.80;18.40;100631.00;;;;5012284;28;20266;-48
2022/11/05 00:31:56;;;;;;;5.10;3.63;;;17.30;68.80;18.40;100626.00;;;;5010890;28;20221;-50
2022/11/05 00:34:21;;;;;;;4.53;3.90;;;17.30;68.90;18.40;100627.00;;;;5011583;28;20179;-49
2022/11/05 00:36:47;;;;;;;7.03;3.80;;;17.30;68.90;18.40;100636.00;;;;5011203;28;20914;-49
2022/11/05 00:39:13;;;;;;;12.77;3.97;;;17.30;68.90;18.40;100638.00;;;;5011194;28;20175;-48
2022/11/05 00:41:38;;;;;;;8.37;3.80;;;17.30;68.90;18.40;100651.00;;;;4992888;28;20207;-48
2022/11/05 00:46:48;;;;;;;6.53;3.70;;;17.30;68.90;18.40;100658.00;;;;5010988;28;20167;-48
2022/11/05 00:49:29;;;;;;;5.60;3.50;;;17.20;68.80;18.40;100667.00;;;;5010989;28;20188;-48
2022/11/05 00:54:39;;;;;;;4.37;3.60;;;17.20;68.80;18.40;100685.00;;;;5010638;28;20197;-50
2022/11/05 00:57:05;;;;;;;4.57;3.50;;;17.20;69.60;18.40;100534.00;;;;5010918;28;20173;-49
2022/11/05 00:59:31;;;;;;;4.37;3.40;;;17.20;68.70;18.30;100683.00;;;;5009939;28;20657;-48
2022/11/05 01:01:56;;;;;;;5.40;3.73;;;17.20;68.80;18.30;100675.00;;;;5010444;28;20213;-49
2022/11/05 01:04:22;;;;;;;4.33;3.60;;;17.20;68.80;18.30;100671.00;;;;4993015;28;20211;-48
2022/11/05 01:06:48;;;;;;;4.67;3.40;;;17.20;68.80;18.30;100681.00;;;;5011745;28;20186;-48
2022/11/05 01:09:14;;;;;;;5.43;3.87;;;17.20;68.80;18.30;100672.00;;;;5013171;28;20183;-48
2022/11/05 01:11:40;;;;;;;4.43;3.37;;;17.20;68.80;18.30;100684.00;;;;5010969;28;20183;-48
2022/11/05 01:14:11;;;;;;;4.07;3.40;;;17.20;68.80;18.30;100692.00;;;;5010193;28;20211;-48
2022/11/05 01:16:37;;;;;;;3.57;3.27;;;17.20;68.80;18.30;100691.00;;;;5010694;28;20175;-49
2022/11/05 01:19:04;;;;;;;3.83;3.33;;;17.20;68.80;18.30;100701.00;;;;5010576;28;20178;-48
2022/11/05 01:21:30;;;;;;;4.07;3.23;;;17.10;68.80;18.30;100708.00;;;;5010405;28;20172;-49
2022/11/05 01:23:55;;;;;;;4.90;3.60;;;17.10;68.90;18.20;100692.00;;;;5010409;28;20256;-49
2022/11/05 01:26:21;;;;;;;3.70;3.40;;;17.10;69.00;18.20;100690.00;;;;4976821;28;20539;-48
2022/11/05 01:28:51;;;;;;;4.83;3.77;;;17.00;68.80;18.20;100690.00;;;;5010236;28;20206;-49
2022/11/05 01:31:17;;;;;;;3.90;3.40;;;17.00;68.80;18.20;100695.00;;;;5009875;28;20184;-49
2022/11/05 01:33:43;;;;;;;3.90;3.50;;;17.00;68.80;18.20;100700.00;;;;5009861;28;20278;-49
2022/11/05 01:36:09;;;;;;;3.80;3.40;;;17.00;68.80;18.20;100706.00;;;;5010366;28;20190;-49
2022/11/05 01:38:35;;;;;;;3.90;3.10;;;17.00;68.80;18.20;100710.00;;;;4992522;28;20174;-48
2022/11/05 01:41:01;;;;;;;4.17;3.60;;;17.00;68.90;18.20;100722.00;;;;5009950;28;20190;-48
2022/11/05 01:43:49;;;;;;;3.73;3.30;;;17.00;68.80;18.20;100713.00;;;;4992129;28;20200;-48
2022/11/05 01:46:40;;;;;;;4.53;3.03;;;16.90;68.80;18.10;100714.00;;;;4993838;28;20633;-48
2022/11/05 01:49:26;;;;;;;3.47;3.17;;;17.00;68.90;18.10;100719.00;;;;4992290;28;20186;-49
2022/11/05 01:51:52;;;;;;;3.20;2.90;;;16.90;68.80;18.10;100724.00;;;;4961763;28;20206;-49
2022/11/05 01:54:19;;;;;;;3.60;3.20;;;16.90;69.20;18.10;100724.00;;;;4992140;28;20238;-49
2022/11/05 01:56:54;;;;;;;4.93;3.13;;;16.90;69.40;18.10;100713.00;;;;4976462;28;20194;-49
2022/11/05 01:59:27;;;;;;;4.17;3.10;;;16.90;69.40;18.10;100730.00;;;;4992085;28;20163;-49
2022/11/05 02:01:52;;;;;;;3.40;3.10;;;16.90;69.50;17.80;100727.00;;;;4992182;28;20220;-49
2022/11/05 02:04:39;;;;;;;3.70;3.30;;;16.90;69.50;18.10;100738.00;;;;4975922;28;20664;-48
2022/11/05 02:07:05;;;;;;;3.23;2.93;;;16.90;69.60;18.10;100736.00;;;;4994478;28;20183;-48
2022/11/05 02:09:53;;;;;;;4.93;3.47;;;16.90;69.60;18.10;100670.00;;;;4991610;28;20179;-48
2022/11/05 02:12:19;;;;;;;3.37;3.07;;;16.80;69.40;17.80;100729.00;;;;5009073;28;20304;-48
2022/11/05 02:14:45;;;;;;;3.37;2.93;;;16.80;69.40;18.00;100739.00;;;;4959800;28;20229;-48
2022/11/05 02:17:38;;;;;;;5.13;3.30;;;16.80;69.40;18.00;100734.00;;;;5009291;28;20174;-48
2022/11/05 02:20:27;;;;;;;4.10;3.20;;;16.80;69.40;18.00;100731.00;;;;4991869;28;20156;-49
2022/11/05 02:23:38;;;;;;;3.37;2.87;;;16.90;69.40;18.00;100739.00;;;;5009453;28;20195;-48
2022/11/05 02:26:31;;;;;;;3.30;3.00;;;16.90;69.30;18.00;100743.00;;;;4981686;28;20174;-48
2022/11/05 02:29:21;;;;;;;3.07;2.77;;;16.90;69.40;18.00;100752.00;;;;4992231;28;20200;-50
2022/11/05 02:31:51;;;;;;;7.53;3.30;;;16.80;69.40;17.90;100748.00;;;;4975907;28;20181;-48
2022/11/05 02:35:04;;;;;;;3.63;3.23;;;16.80;69.50;17.90;100760.00;;;;4992085;28;20190;-48
2022/11/05 02:37:44;;;;;;;4.00;2.93;;;16.80;69.40;17.90;100753.00;;;;5008972;28;20759;-49
2022/11/05 02:40:26;;;;;;;3.33;3.03;;;16.80;69.50;17.90;100743.00;;;;4976958;28;20167;-49
2022/11/05 02:43:16;;;;;;;3.17;2.87;;;16.70;69.40;17.90;100757.00;;;;4962190;28;20197;-48
2022/11/05 02:45:47;;;;;;;3.10;2.90;;;16.70;69.40;17.60;100757.00;;;;4960896;28;20190;-48
2022/11/05 02:48:24;;;;;;;3.10;2.70;;;16.70;69.50;17.90;100758.00;;;;5008833;28;20170;-48
2022/11/05 02:50:57;;;;;;;3.63;3.07;;;16.70;70.30;17.90;100751.00;;;;4977373;28;20160;-48
2022/11/05 02:53:47;;;;;;;3.23;2.93;;;16.70;69.40;17.90;100756.00;;;;4990865;28;20200;-48
2022/11/05 02:56:26;;;;;;;3.47;2.80;;;16.70;69.40;17.90;100764.00;;;;4976661;28;20152;-49
2022/11/05 02:58:52;;;;;;;14.13;3.33;;;16.70;69.40;17.80;100758.00;;;;4959897;28;20163;-49
2022/11/05 03:01:17;;;;;;;3.20;2.90;;;16.70;69.40;17.80;100749.00;;;;5008401;28;20186;-49
2022/11/05 03:03:47;;;;;;;3.07;2.77;;;16.70;69.50;17.90;100756.00;;;;5008268;28;20264;-49
2022/11/05 03:06:38;;;;;;;3.20;2.90;;;16.70;69.40;17.80;100754.00;;;;4959252;28;20592;-49
2022/11/05 03:09:18;;;;;;;3.00;2.80;;;16.70;69.40;17.80;100756.00;;;;5008482;28;20592;-48
2022/11/05 03:12:20;;;;;;;4.37;2.70;;;16.60;69.40;17.80;100757.00;;;;5008447;28;20224;-48
2022/11/05 03:15:07;;;;;;;2.87;2.67;;;16.60;69.40;17.80;100748.00;;;;4993073;28;20183;-48
2022/11/05 03:17:43;;;;;;;3.07;2.87;;;16.60;69.40;17.80;100751.00;;;;4993424;28;20243;-48
2022/11/05 03:20:30;;;;;;;2.90;2.70;;;16.60;69.40;17.80;100763.00;;;;5008540;28;20169;-47
2022/11/05 03:23:28;;;;;;;3.67;3.03;;;16.60;69.40;17.80;100758.00;;;;4992960;28;20200;-48
2022/11/05 03:26:26;;;;;;;2.87;2.67;;;16.60;69.40;17.50;100753.00;;;;4991379;28;20170;-49
2022/11/05 03:29:05;;;;;;;3.10;2.80;;;16.60;69.40;17.70;100766.00;;;;4990814;28;20538;-49
2022/11/05 03:31:31;;;;;;;3.00;2.70;;;16.60;69.40;17.70;100761.00;;;;4975160;28;20223;-48
2022/11/05 03:33:57;;;;;;;2.70;2.50;;;16.60;69.40;17.70;100730.00;;;;4958321;28;20772;-48
2022/11/05 03:36:29;;;;;;;14.30;3.20;;;16.50;69.20;17.70;100755.00;;;;4990903;28;20169;-49
2022/11/05 03:38:55;;;;;;;2.80;2.60;;;16.50;69.30;17.70;100761.00;;;;4943586;28;20170;-49
2022/11/05 03:41:21;;;;;;;3.17;2.87;;;16.50;69.20;17.70;100761.00;;;;4958456;28;20849;-48
2022/11/05 03:43:49;;;;;;;2.87;2.67;;;16.50;69.20;17.70;100743.00;;;;4990568;28;20202;-48
2022/11/05 03:46:26;;;;;;;3.03;2.73;;;16.50;69.20;17.70;100770.00;;;;4990938;28;20607;-48
2022/11/05 03:48:54;;;;;;;2.77;2.57;;;16.40;69.10;17.70;100776.00;;;;4976132;28;20231;-48
2022/11/05 03:51:34;;;;;;;2.90;2.60;;;16.50;69.40;17.40;100772.00;;;;4958548;28;20188;-48
2022/11/05 03:54:01;;;;;;;3.00;2.70;;;16.50;69.20;17.70;100792.00;;;;5007796;28;20201;-48
2022/11/05 03:56:34;;;;;;;2.87;2.67;;;16.50;69.40;17.70;100792.00;;;;4974937;28;20184;-48
2022/11/05 03:59:00;;;;;;;3.63;2.70;;;16.50;69.20;17.70;100781.00;;;;4975025;28;20169;-48
2022/11/05 04:01:26;;;;;;;6.03;2.90;;;16.50;69.30;17.70;100771.00;;;;4974244;28;20189;-48
2022/11/05 04:03:52;;;;;;;6.27;2.67;;;16.50;69.40;17.70;100787.00;;;;4990238;28;20190;-50
2022/11/05 04:14:30;;;;;;;4.37;2.97;;;16.50;69.40;17.60;100806.00;;;;5008111;28;20197;-47
2022/11/05 04:17:05;;;;;;;5.03;2.57;;;16.40;69.80;17.60;100802.00;;;;4990403;28;20211;-50
2022/11/05 04:25:01;;;;;;;4.17;2.70;;;16.40;69.90;17.50;100800.00;;;;5007626;28;20235;-47
2022/11/05 04:27:27;;;;;;;4.30;2.67;;;16.40;69.90;17.50;100801.00;;;;5007783;28;20268;-48
2022/11/05 04:32:36;;;;;;;7.30;2.77;;;16.40;69.80;17.50;100803.00;;;;5007007;28;20247;-48
2022/11/05 04:35:02;;;;;;;5.53;2.67;;;16.30;69.70;17.50;100812.00;;;;5011318;28;20552;-47
2022/11/05 04:37:28;;;;;;;2.97;2.60;;;16.30;69.70;17.50;100807.00;;;;5011132;28;20679;-48
2022/11/05 04:39:54;;;;;;;3.23;2.80;;;16.40;69.80;17.50;100808.00;;;;5011001;28;20176;-47
2022/11/05 04:42:19;;;;;;;5.37;2.73;;;16.30;69.70;17.50;100818.00;;;;5011251;28;20573;-49
2022/11/05 04:44:45;;;;;;;2.73;2.53;;;16.30;69.70;17.40;100818.00;;;;5011151;28;20203;-49
2022/11/05 04:47:11;;;;;;;2.53;2.30;;;16.30;69.70;17.40;100806.00;;;;5010939;28;20680;-49
2022/11/05 04:49:36;;;;;;;2.93;2.60;;;16.30;69.70;17.40;100822.00;;;;4993579;28;20239;-49
2022/11/05 04:52:02;;;;;;;2.67;2.40;;;16.20;69.60;17.40;100816.00;;;;5010540;28;20173;-48
2022/11/05 04:54:28;;;;;;;3.30;2.67;;;16.20;69.60;17.40;100816.00;;;;5010631;28;20617;-48
2022/11/05 04:56:54;;;;;;;3.07;2.50;;;16.20;70.10;17.40;100819.00;;;;5010788;28;20207;-48
2022/11/05 04:59:19;;;;;;;2.80;2.40;;;16.20;69.60;17.40;100812.00;;;;5007978;28;20185;-48
2022/11/05 05:01:45;;;;;;;2.60;2.40;;;16.20;69.60;17.40;100816.00;;;;5010174;28;20188;-48
2022/11/05 05:04:11;;;;;;;6.27;2.87;;;16.20;69.60;17.40;100815.00;;;;5010316;28;20204;-48
2022/11/05 05:06:37;;;;;;;3.57;2.50;;;16.20;69.60;17.40;100813.00;;;;5010622;28;20187;-48
2022/11/05 05:09:03;;;;;;;4.07;2.50;;;16.20;69.50;17.40;100808.00;;;;5010684;28;20184;-48
2022/11/05 05:11:29;;;;;;;5.23;2.40;;;16.20;69.40;17.40;100808.00;;;;5010173;28;20188;-47
2022/11/05 05:13:54;;;;;;;4.07;2.63;;;16.20;69.60;17.40;100824.00;;;;5010045;28;20356;-48
2022/11/05 05:16:23;;;;;;;3.97;2.50;;;16.10;70.30;17.30;100810.00;;;;5010063;28;20190;-49
2022/11/05 05:18:48;;;;;;;6.10;2.60;;;16.10;69.50;17.30;100813.00;;;;5008793;28;20287;-47
2022/11/05 05:24:00;;;;;;;6.30;2.57;;;16.10;69.40;17.30;100813.00;;;;5010034;28;20223;-48
2022/11/05 05:26:25;;;;;;;3.53;2.60;;;16.10;69.30;17.30;100813.00;;;;5009656;28;20170;-49
2022/11/05 05:28:52;;;;;;;3.67;2.80;;;16.10;69.30;17.30;100826.00;;;;5010167;28;20233;-47
2022/11/05 05:31:19;;;;;;;3.10;2.80;;;16.10;69.20;17.30;100831.00;;;;5010067;28;20670;-48
2022/11/05 05:33:45;;;;;;;4.57;3.10;;;16.10;69.20;17.30;100830.00;;;;5010199;28;20655;-48
2022/11/05 05:36:10;;;;;;;5.60;3.00;;;16.10;69.20;17.20;100832.00;;;;5011041;28;20199;-48
2022/11/05 05:38:36;;;;;;;4.13;2.97;;;16.10;69.20;17.20;100843.00;;;;5010132;28;20173;-49
2022/11/05 05:41:02;;;;;;;3.30;3.00;;;16.10;69.10;17.20;100844.00;;;;4992889;28;20171;-48
2022/11/05 05:43:30;;;;;;;4.60;2.97;;;16.10;69.00;17.20;100835.00;;;;4992283;28;20197;-47
2022/11/05 05:45:56;;;;;;;5.37;3.20;;;16.10;69.00;17.20;100843.00;;;;5010749;28;20179;-48
2022/11/05 05:48:23;;;;;;;3.93;3.20;;;16.00;68.80;17.20;100836.00;;;;5010963;28;20196;-48
2022/11/05 05:50:48;;;;;;;4.23;3.00;;;16.00;68.70;17.20;100844.00;;;;5010850;28;20551;-48
2022/11/05 05:53:14;;;;;;;3.60;3.30;;;16.00;68.70;17.10;100838.00;;;;5009653;28;20207;-48
2022/11/05 05:55:40;;;;;;;4.07;2.97;;;16.00;68.60;17.20;100843.00;;;;5010754;28;20191;-47
2022/11/05 05:58:06;;;;;;;5.30;3.00;;;16.00;68.60;17.20;100844.00;;;;5010456;28;20179;-48
2022/11/05 06:00:31;;;;;;;3.87;3.47;;;16.00;68.60;17.10;100851.00;;;;5010314;28;20173;-48
2022/11/05 06:02:57;;;;;;;4.53;3.20;;;16.00;68.60;17.10;100861.00;;;;5009167;28;20206;-48
2022/11/05 06:05:23;;;;;;;5.50;3.17;;;16.00;68.50;17.10;100867.00;;;;5010326;28;20178;-47
2022/11/05 06:07:56;;;;;;;3.50;3.20;;;15.90;68.60;17.10;100868.00;;;;5009955;28;20649;-47
2022/11/05 06:10:23;;;;;;;5.50;3.17;;;15.90;68.50;17.10;100867.00;;;;5010096;28;20653;-49
2022/11/05 06:12:49;;;;;;;5.43;2.80;;;15.90;69.40;17.10;100873.00;;;;5009337;28;20303;-48
2022/11/05 06:15:14;;;;;;;3.53;2.90;;;15.90;68.60;17.10;100806.00;;;;5010137;28;20191;-48
2022/11/05 06:17:43;;;;;;;4.03;3.20;;;15.90;68.60;17.10;100886.00;;;;5010078;28;20175;-48
2022/11/05 06:20:10;;;;;;;3.70;3.00;;;15.90;68.80;17.10;100885.00;;;;5009956;28;20672;-47
2022/11/05 06:22:35;;;;;;;5.10;3.00;;;15.90;68.60;17.10;100889.00;;;;4991702;28;20866;-47
2022/11/05 06:25:01;;;;;;;3.50;2.80;;;15.90;68.70;17.00;100880.00;;;;5010293;28;20179;-47
2022/11/05 06:27:28;;;;;;;3.27;2.80;;;15.90;68.70;17.00;100875.00;;;;5009780;28;20706;-49
2022/11/05 06:29:54;;;;;;;3.10;2.80;;;15.90;68.80;17.00;100880.00;;;;5009718;28;20231;-49
2022/11/05 06:32:20;;;;;;;3.13;2.80;;;15.80;68.70;17.00;100883.00;;;;5009283;28;20622;-49
2022/11/05 06:34:45;;;;;;;3.07;2.83;;;15.80;68.70;17.00;100879.00;;;;5009751;28;20177;-48
2022/11/05 06:37:11;;;;;;;4.43;2.83;;;15.80;68.70;17.00;100886.00;;;;5009697;28;20180;-48
2022/11/05 06:39:37;;;;;;;2.87;2.50;;;15.80;68.70;17.00;100885.00;;;;5009503;28;20246;-49
2022/11/05 06:42:03;;;;;;;3.13;2.50;;;15.80;68.70;16.90;100887.00;;;;5009799;28;20577;-49
2022/11/05 06:44:28;;;;;;;2.87;2.57;;;15.80;68.70;16.90;100892.00;;;;5008964;28;20230;-49
2022/11/05 06:46:54;;;;;;;2.77;2.57;;;15.80;68.70;16.90;100893.00;;;;5009331;28;20184;-49
2022/11/05 06:49:23;;;;;;;3.00;2.70;;;15.80;68.70;16.90;100901.00;;;;5009293;28;20180;-49
2022/11/05 06:51:50;;;;;;;2.77;2.57;;;15.80;68.70;16.90;100893.00;;;;5009379;28;20210;-49
2022/11/05 06:54:15;;;;;;;3.03;2.73;;;15.80;68.70;16.90;100902.00;;;;4991405;28;20558;-48
2022/11/05 06:56:41;;;;;;;3.03;2.47;;;15.80;68.60;16.90;100910.00;;;;5009025;28;20176;-48
2022/11/05 06:59:07;;;;;;;2.47;2.27;;;15.70;68.60;16.90;100909.00;;;;5009180;28;20178;-48
2022/11/05 07:01:34;;;;;;;2.83;2.53;;;15.70;68.60;16.90;100910.00;;;;5008759;28;20205;-49
2022/11/05 07:04:00;;;;;;;3.20;2.30;;;15.70;68.70;16.90;100918.00;;;;5008816;28;20242;-48
2022/11/05 07:06:26;;;;;;;2.70;2.50;;;15.70;68.70;16.90;100930.00;;;;5009050;28;20210;-48
2022/11/05 07:08:52;;;;;;;2.50;2.30;;;15.70;68.70;16.80;100933.00;;;;4991770;28;20600;-48
2022/11/05 07:11:18;;;;;;;2.67;2.47;;;15.70;68.70;16.80;100939.00;;;;4991105;28;20195;-47
2022/11/05 07:13:43;;;;;;;2.60;2.40;;;15.70;68.70;16.80;100931.00;;;;5008684;28;20270;-48
2022/11/05 07:16:09;;;;;;;2.70;2.50;;;15.70;68.70;16.80;100939.00;;;;5009002;28;20659;-48
2022/11/05 07:18:35;;;;;;;2.50;2.30;;;15.70;68.70;16.80;100950.00;;;;5009265;28;20207;-48
2022/11/05 07:21:01;;;;;;;2.70;2.50;;;15.60;68.60;16.80;100946.00;;;;5009265;28;20204;-48
2022/11/05 07:23:26;;;;;;;2.87;2.30;;;15.60;68.60;16.80;100946.00;;;;5008505;28;20247;-48
2022/11/05 07:25:52;;;;;;;2.70;2.20;;;15.60;68.60;16.80;100948.00;;;;5008747;28;20687;-48
2022/11/05 07:28:18;;;;;;;2.57;2.37;;;15.60;68.60;16.80;100958.00;;;;5009173;28;20203;-48
2022/11/05 07:30:44;;;;;;;2.50;2.30;;;15.60;68.60;16.80;100962.00;;;;5008923;28;20181;-47
2022/11/05 07:33:09;;;;;;;2.53;2.33;;;15.60;68.60;16.70;100957.00;;;;5008138;28;20462;-48
2022/11/05 07:35:35;;;;;;;2.50;2.30;;;15.60;68.60;16.70;100961.00;;;;5008682;28;20194;-48
2022/11/05 07:38:01;;;;;;;2.50;2.30;;;15.60;68.60;16.80;100961.00;;;;5008845;28;20172;-49
2022/11/05 07:40:28;;;;;;;2.93;2.40;;;15.60;68.60;16.70;100963.00;;;;5008928;28;20208;-49
2022/11/05 07:42:58;;;;;;;2.60;2.40;;;15.60;68.60;16.70;100964.00;;;;5008213;28;20199;-47
2022/11/05 07:45:25;;;;;;;3.23;2.20;;;15.50;68.50;16.70;100961.00;;;;5009459;28;20218;-48
2022/11/05 07:47:55;;;;;;;2.30;2.10;;;15.50;68.60;16.70;100964.00;;;;5008918;28;20175;-48
2022/11/05 07:50:22;;;;;;;2.43;2.20;;;15.50;68.50;16.70;100966.00;;;;5009258;28;20606;-48
2022/11/05 07:52:48;;;;;;;2.40;2.20;;;15.50;68.50;16.70;100966.00;;;;5007915;28;20863;-48
2022/11/05 07:55:14;;;;;;;2.40;2.20;;;15.50;68.50;16.70;100965.00;;;;4990622;28;20192;-48
2022/11/05 07:57:44;;;;;;;2.37;2.17;;;15.50;68.60;16.70;100973.00;;;;5008443;28;20180;-48
2022/11/05 08:00:12;;;;;;;2.40;2.20;;;15.50;68.60;16.60;100977.00;;;;4991560;28;20333;-48
2022/11/05 08:02:38;;;;;;;2.50;2.30;;;15.50;68.60;16.60;100968.00;;;;5008173;28;20938;-49
2022/11/05 08:05:03;;;;;;;2.60;2.40;;;15.50;68.50;16.60;100973.00;;;;5008743;28;20191;-49
2022/11/05 08:07:29;;;;;;;2.43;2.23;;;15.50;68.50;16.60;100983.00;;;;5009455;28;20191;-49
2022/11/05 08:09:55;;;;;;;2.20;2.10;;;15.50;68.60;16.60;100974.00;;;;5012589;28;20175;-48
2022/11/05 08:12:21;;;;;;;2.40;2.20;;;15.50;68.60;16.60;100984.00;;;;5011768;28;20210;-48
2022/11/05 08:14:46;;;;;;;2.43;2.23;;;15.40;68.50;16.60;100983.00;;;;5012178;28;20542;-48
2022/11/05 08:17:12;;;;;;;2.50;2.30;;;15.40;68.50;16.60;100975.00;;;;5012017;28;20203;-48
2022/11/05 08:19:38;;;;;;;2.50;2.30;;;15.40;68.50;16.60;100985.00;;;;5012391;28;20710;-49
2022/11/05 08:22:03;;;;;;;2.50;2.30;;;15.40;68.60;16.60;100979.00;;;;5011733;28;20771;-49
2022/11/05 08:24:29;;;;;;;2.60;2.40;;;15.40;68.60;16.50;100984.00;;;;5011614;28;20180;-48
2022/11/05 08:26:55;;;;;;;2.23;2.07;;;15.40;68.50;16.50;100985.00;;;;5012003;28;20190;-49
2022/11/05 08:29:20;;;;;;;2.33;2.13;;;15.40;68.50;16.50;100985.00;;;;4994463;28;20176;-49
2022/11/05 08:31:46;;;;;;;2.50;2.30;;;15.40;68.60;16.50;100982.00;;;;5011147;28;20522;-48
2022/11/05 08:34:12;;;;;;;2.90;2.40;;;15.40;68.60;16.50;100985.00;;;;5011290;28;20235;-49
2022/11/05 08:36:40;;;;;;;2.40;2.20;;;15.40;68.60;16.50;100989.00;;;;5011795;28;20168;-48
2022/11/05 08:39:06;;;;;;;2.50;2.30;;;15.40;68.60;16.50;100993.00;;;;5011739;28;20685;-49
2022/11/05 08:41:32;;;;;;;2.40;2.20;;;15.40;68.60;16.50;100985.00;;;;5011686;28;20172;-49
2022/11/05 08:43:58;;;;;;;2.40;2.20;;;15.40;68.50;16.50;100983.00;;;;5011468;28;20601;-49
2022/11/05 08:46:23;;;;;;;2.27;2.10;;;15.40;68.60;16.50;100986.00;;;;5012119;28;20277;-49
2022/11/05 08:48:49;;;;;;;2.30;2.10;;;15.40;68.60;16.50;100992.00;;;;5011876;28;20840;-49
2022/11/05 08:51:15;;;;;;;2.30;2.10;;;15.40;68.60;16.50;100994.00;;;;5011813;28;20176;-49
2022/11/05 08:53:40;;;;;;;2.20;2.00;;;15.40;68.70;16.50;100994.00;;;;5011057;28;20203;-49
2022/11/05 08:56:07;;;;;;;5.23;2.40;;;15.40;68.80;16.50;100943.00;;;;5011552;28;20878;-49
2022/11/05 08:58:32;;;;;;;3.63;2.60;;;15.40;69.00;16.50;101009.00;;;;5011294;28;20172;-50
2022/11/05 09:00:58;;;;;;;2.73;2.30;;;15.40;69.10;16.40;101006.00;;;;5010576;28;20238;-49
2022/11/05 09:03:24;;;;;;;3.20;2.40;;;15.40;69.00;16.50;101007.00;;;;4923700;28;20203;-48
2022/11/05 09:05:49;;;;;;;3.50;2.30;;;15.40;69.10;16.40;101002.00;;;;5009716;28;20195;-48
2022/11/05 09:08:17;;;;;;;3.23;2.40;;;15.40;69.20;16.40;101007.00;;;;5009380;28;20617;-47
2022/11/05 09:10:44;;;;;;;3.17;2.40;;;15.40;69.10;16.40;101003.00;;;;5008859;28;20179;-48
2022/11/05 09:13:10;;;;;;;2.53;2.20;;;15.40;69.10;16.40;101007.00;;;;5009270;28;20769;-48
2022/11/05 09:15:36;;;;;;;2.70;2.43;;;15.40;69.20;16.40;101015.00;;;;5009540;28;20217;-49
2022/11/05 09:18:04;;;;;;;3.83;2.40;;;15.40;69.30;16.40;100998.00;;;;5010485;28;20187;-48
2022/11/05 09:20:31;;;;;;;8.13;3.00;;;15.40;69.40;16.40;101012.00;;;;5022201;28;20788;-46
2022/11/05 09:22:56;;;;;;;8.57;2.80;;;15.40;70.40;16.40;101000.00;;;;5030800;28;20574;-49
2022/11/05 09:25:22;;;;;;;7.73;2.60;;;15.40;70.40;16.40;101013.00;;;;5030929;28;20181;-46
2022/11/05 09:27:48;;;;;;;7.43;2.57;;;15.30;70.10;16.40;101008.00;;;;5031224;28;20697;-46
2022/11/05 09:30:14;;;;;;;13.63;2.93;;;15.30;70.40;16.40;101012.00;;;;5030699;28;20191;-46
2022/11/05 09:32:39;;;;;;;5.50;2.30;;;15.40;70.70;16.40;101015.00;;;;5030787;28;20203;-48
2022/11/05 09:35:06;;;;;;;5.27;2.70;;;15.40;70.20;16.40;101022.00;;;;5031317;28;20179;-48
2022/11/05 09:37:31;;;;;;;10.07;2.90;;;15.40;70.40;16.30;101007.00;;;;5030255;28;20171;-46
2022/11/05 09:39:57;;;;;;;7.00;2.70;;;15.40;70.30;16.30;101004.00;;;;5027833;28;20244;-47
2022/11/05 09:42:28;;;;;;;7.47;2.93;;;15.40;70.50;16.30;101013.00;;;;5030616;28;20237;-47
2022/11/05 09:45:00;;;;;;;9.47;2.90;;;15.40;70.50;16.30;101012.00;;;;5012349;28;20159;-47
2022/11/05 09:47:39;;;;;;;6.17;2.70;;;15.40;70.50;16.30;101016.00;;;;5013136;28;20179;-47
2022/11/05 09:50:14;;;;;;;6.20;2.60;;;15.40;70.30;16.30;101015.00;;;;5029788;28;20177;-47
2022/11/05 09:52:40;;;;;;;6.57;2.90;;;15.40;70.30;16.40;101021.00;;;;5030138;28;20206;-46
2022/11/05 09:55:25;;;;;;;7.03;2.60;;;15.40;70.20;16.40;101018.00;;;;5012045;28;20187;-47
2022/11/05 09:58:02;;;;;;;4.27;2.47;;;15.40;70.50;16.40;101017.00;;;;5030494;28;20171;-47
2022/11/05 10:00:28;;;;;;;4.57;2.47;;;15.40;71.30;16.40;101008.00;;;;5012870;28;20587;-47
2022/11/05 10:02:57;;;;;;;4.33;2.57;;;15.40;70.30;16.40;101009.00;;;;5012349;28;20194;-46
2022/11/05 10:05:26;;;;;;;5.47;2.53;;;15.40;70.30;16.40;101024.00;;;;4996035;28;20183;-46
2022/11/05 10:08:03;;;;;;;3.97;2.37;;;15.40;70.30;16.40;101021.00;;;;5012064;28;20182;-46
2022/11/05 10:10:38;;;;;;;4.43;2.57;;;15.40;70.30;16.40;101022.00;;;;5030176;28;20182;-46
2022/11/05 10:13:28;;;;;;;2.90;2.60;;;15.40;70.30;16.40;101025.00;;;;5011963;28;20226;-46
2022/11/05 10:16:14;;;;;;;5.87;2.50;;;15.40;70.50;16.40;101027.00;;;;4996331;28;20164;-47
2022/11/05 10:18:42;;;;;;;8.30;2.50;;;15.40;70.70;16.30;101024.00;;;;5014284;28;20170;-46
2022/11/05 10:21:15;;;;;;;4.50;2.50;;;15.40;70.60;16.40;101021.00;;;;5012738;28;20514;-46
2022/11/05 10:23:41;;;;;;;4.13;2.57;;;15.40;70.60;16.40;101019.00;;;;5012309;28;20199;-48
2022/11/05 10:26:18;;;;;;;4.97;2.60;;;15.40;70.60;16.40;101030.00;;;;5012360;28;20261;-47
2022/11/05 10:28:43;;;;;;;3.43;2.60;;;15.40;70.70;16.40;101031.00;;;;4997039;28;20175;-48
2022/11/05 10:31:15;;;;;;;3.43;2.40;;;15.40;70.70;16.40;101025.00;;;;5028459;28;20517;-47
2022/11/05 10:33:50;;;;;;;4.10;2.30;;;15.40;70.90;16.40;101017.00;;;;5029378;28;20203;-47
2022/11/05 10:36:26;;;;;;;6.73;2.60;;;15.40;71.00;16.40;101012.00;;;;5012698;28;20186;-47
2022/11/05 10:38:53;;;;;;;2.93;2.40;;;15.40;70.90;16.40;101007.00;;;;5011736;28;20315;-47
2022/11/05 10:41:58;;;;;;;3.93;2.37;;;15.40;70.90;16.30;101028.00;;;;5011563;28;20329;-47
2022/11/05 10:44:29;;;;;;;3.40;2.50;;;15.40;71.10;16.30;101029.00;;;;5015125;28;20166;-48
2022/11/05 10:47:15;;;;;;;2.50;2.30;;;15.40;71.20;16.30;101001.00;;;;5011507;28;20174;-48
2022/11/05 10:49:49;;;;;;;2.57;2.20;;;15.40;71.10;16.30;101025.00;;;;5011601;28;20503;-48
2022/11/05 10:52:33;;;;;;;2.60;2.40;;;15.40;71.50;16.40;101036.00;;;;5029363;28;20229;-48
2022/11/05 10:55:03;;;;;;;3.17;2.30;;;15.40;71.50;16.40;101039.00;;;;5029097;28;20256;-47
2022/11/05 10:57:37;;;;;;;2.60;2.37;;;15.40;71.50;16.30;101038.00;;;;5011844;28;20302;-47
2022/11/05 11:00:18;;;;;;;3.43;2.30;;;15.50;71.50;16.40;101047.00;;;;5011735;28;20162;-47
2022/11/05 11:02:53;;;;;;;4.37;2.30;;;15.40;71.50;16.40;101039.00;;;;5028718;28;20596;-47
2022/11/05 11:05:22;;;;;;;4.50;2.43;;;15.40;71.50;16.40;101045.00;;;;5029168;28;20165;-47
2022/11/05 11:07:59;;;;;;;2.57;2.37;;;15.50;71.70;16.40;101037.00;;;;5011231;28;20225;-48
2022/11/05 11:10:24;;;;;;;2.60;2.17;;;15.50;71.70;16.40;101035.00;;;;5011613;28;20270;-48
2022/11/05 11:12:50;;;;;;;2.40;2.20;;;15.50;71.80;16.40;101038.00;;;;5011459;28;20195;-48
2022/11/05 11:15:27;;;;;;;3.60;2.30;;;15.50;71.70;16.40;101034.00;;;;5029397;28;20518;-47
2022/11/05 11:17:55;;;;;;;2.97;2.20;;;15.50;71.80;16.40;101020.00;;;;5029185;28;20159;-48
2022/11/05 11:20:24;;;;;;;2.57;2.30;;;15.50;71.70;16.40;101019.00;;;;5011599;28;20168;-48
2022/11/05 11:23:00;;;;;;;2.97;2.10;;;15.50;71.80;16.40;101024.00;;;;5028760;28;20241;-48
2022/11/05 11:25:46;;;;;;;2.20;2.00;;;15.50;71.80;16.40;101009.00;;;;5029036;28;20195;-48
2022/11/05 11:28:36;;;;;;;2.50;2.30;;;15.50;71.90;16.40;101011.00;;;;5013459;28;20175;-47
2022/11/05 11:31:16;;;;;;;2.50;2.30;;;15.50;71.90;16.40;101020.00;;;;5011603;28;20625;-48
2022/11/05 11:33:44;;;;;;;3.10;2.20;;;15.50;71.80;16.40;101016.00;;;;5028817;28;20203;-46
2022/11/05 11:36:10;;;;;;;2.40;2.20;;;15.50;71.80;16.50;101013.00;;;;4995021;28;20238;-46
2022/11/05 11:38:36;;;;;;;2.30;2.10;;;15.60;72.00;16.50;101013.00;;;;4994457;28;20181;-48
2022/11/05 11:41:25;;;;;;;2.37;2.17;;;15.60;71.90;16.50;101023.00;;;;5011080;28;20174;-48
2022/11/05 11:43:59;;;;;;;3.37;2.30;;;15.60;72.00;16.50;101026.00;;;;5014823;28;20241;-46